Time;durP1;ratioP1;P1;durP2;ratioP2;P2;SDS_P1;SDS_P2;PMS_P1;PMS_P2;Temp;Humidity;BMP_temperature;BMP_pressure;BME280_temperature;BME280_humidity;BME280_pressure;Samples;Min_cycle;Max_cycle;Signal;HPM_P1;HPM_P2
2023/07/02 00:02:19;;;;;;;7.53;3.38;;;;;;;24.66;45.59;100543.00;4955216;29;20443;-61
2023/07/02 00:04:44;;;;;;;9.30;3.55;;;;;;;24.68;45.23;100549.91;4939242;29;20035;-61
2023/07/02 00:07:09;;;;;;;8.65;2.90;;;;;;;24.63;44.82;100552.50;4955280;29;20035;-61
2023/07/02 00:09:35;;;;;;;6.13;3.22;;;;;;;24.58;45.15;100541.41;4955119;29;20043;-61
2023/07/02 00:12:00;;;;;;;10.52;3.80;;;;;;;24.57;45.49;100544.34;4939001;29;20063;-61
2023/07/02 00:14:26;;;;;;;12.75;4.05;;;;;;;24.56;45.14;100545.44;4935793;29;20123;-61
2023/07/02 00:16:51;;;;;;;12.57;3.72;;;;;;;24.53;45.89;100546.75;4955827;28;20043;-61
2023/07/02 00:19:17;;;;;;;11.85;4.35;;;;;;;24.52;45.50;100553.28;4954919;29;20115;-61
2023/07/02 00:21:43;;;;;;;9.27;3.60;;;;;;;24.50;45.71;100547.19;4956218;28;20499;-61
2023/07/02 00:24:09;;;;;;;12.52;4.38;;;;;;;24.48;45.63;100543.84;4955312;29;20090;-61
2023/07/02 00:26:35;;;;;;;12.63;4.25;;;;;;;24.48;45.54;100546.59;4939247;29;20039;-61
2023/07/02 00:29:00;;;;;;;11.88;4.38;;;;;;;24.45;45.11;100546.19;4929262;28;20051;-62
2023/07/02 00:31:27;;;;;;;10.65;4.10;;;;;;;24.43;45.01;100535.44;4938625;28;20047;-60
2023/07/02 00:33:52;;;;;;;13.77;4.88;;;;;;;24.39;45.12;100536.97;4954512;28;20031;-62
2023/07/02 00:36:17;;;;;;;10.90;4.22;;;;;;;24.37;44.85;100536.38;4938674;28;20023;-61
2023/07/02 00:38:47;;;;;;;11.23;5.00;;;;;;;24.36;45.25;100537.44;4922948;28;20384;-61
2023/07/02 00:41:13;;;;;;;11.45;4.68;;;;;;;24.35;45.01;100541.22;4954541;28;20032;-61
2023/07/02 00:43:44;;;;;;;14.50;5.47;;;;;;;24.33;44.85;100544.19;4954361;28;20027;-61
2023/07/02 00:46:19;;;;;;;11.43;5.50;;;;;;;24.30;45.39;100550.13;4954506;28;20035;-61
2023/07/02 00:48:49;;;;;;;15.02;4.63;;;;;;;24.29;45.68;100550.34;4954705;28;20550;-61
2023/07/02 00:51:38;;;;;;;13.57;5.40;;;;;;;24.27;45.04;100545.09;4922905;29;20510;-61
2023/07/02 00:54:04;;;;;;;14.32;5.18;;;;;;;24.27;44.83;100550.56;4954566;29;20386;-62
2023/07/02 00:56:29;;;;;;;11.55;5.63;;;;;;;24.27;45.25;100547.00;4938333;29;20118;-62
2023/07/02 00:58:58;;;;;;;17.83;6.03;;;;;;;24.26;45.27;100553.56;4970249;28;20118;-62
2023/07/02 01:01:25;;;;;;;13.30;6.97;;;;;;;24.26;45.07;100550.81;4938695;29;20487;-61
2023/07/02 01:04:03;;;;;;;19.35;6.65;;;;;;;24.23;44.74;100543.84;4970131;28;20063;-62
2023/07/02 01:06:33;;;;;;;13.80;5.45;;;;;;;24.20;45.26;100540.75;4954162;29;20041;-61
2023/07/02 01:09:04;;;;;;;14.13;5.15;;;;;;;24.18;45.36;100540.13;4954083;29;20038;-61
2023/07/02 01:11:51;;;;;;;14.82;5.70;;;;;;;24.14;45.13;100538.91;4937889;29;20182;-61
2023/07/02 01:14:27;;;;;;;19.77;5.65;;;;;;;24.10;45.22;100545.88;4954005;29;20031;-61
2023/07/02 01:16:54;;;;;;;15.00;5.88;;;;;;;24.09;45.16;100541.47;4954096;28;20411;-61
2023/07/02 01:19:35;;;;;;;15.52;6.63;;;;;;;24.06;45.43;100537.28;4937968;29;20038;-60
2023/07/02 01:22:01;;;;;;;16.75;6.57;;;;;;;24.04;44.86;100544.00;4955367;28;20066;-60
2023/07/02 01:24:27;;;;;;;12.07;6.30;;;;;;;24.01;44.89;100549.94;4938035;29;20407;-61
2023/07/02 01:26:53;;;;;;;15.68;6.53;;;;;;;23.95;44.87;100546.22;4953808;29;20038;-61
2023/07/02 01:29:19;;;;;;;18.05;7.47;;;;;;;23.87;44.79;100538.25;4937465;29;20043;-61
2023/07/02 01:31:46;;;;;;;19.35;6.32;;;;;;;23.86;45.09;100544.81;4937694;29;20178;-61
2023/07/02 01:34:12;;;;;;;16.23;7.38;;;;;;;23.86;45.24;100546.69;4953713;28;20532;-61
2023/07/02 01:36:38;;;;;;;16.00;6.03;;;;;;;23.83;45.46;100547.97;4953775;29;20039;-61
2023/07/02 01:39:03;;;;;;;23.63;7.70;;;;;;;23.85;45.52;100545.00;4953768;29;20044;-61
2023/07/02 01:41:29;;;;;;;16.55;6.10;;;;;;;23.84;45.92;100554.28;4953660;28;20032;-61
2023/07/02 01:43:55;;;;;;;18.23;6.10;;;;;;;23.80;45.08;100553.06;4953409;28;20050;-61
2023/07/02 01:46:21;;;;;;;14.07;6.13;;;;;;;23.80;45.79;100553.06;4953131;28;20042;-61
2023/07/02 01:48:46;;;;;;;17.42;7.13;;;;;;;23.78;45.22;100551.38;4953594;28;20105;-61
2023/07/02 01:51:13;;;;;;;17.95;6.65;;;;;;;23.79;46.13;100557.69;4937604;28;20083;-62
2023/07/02 01:53:38;;;;;;;14.00;6.78;;;;;;;23.78;46.02;100556.84;4937860;28;20015;-61
2023/07/02 01:56:04;;;;;;;20.15;8.88;;;;;;;23.78;45.28;100559.56;4953578;28;20034;-61
2023/07/02 01:58:29;;;;;;;18.67;6.90;;;;;;;23.78;45.31;100556.84;4969585;28;20102;-61
2023/07/02 02:00:55;;;;;;;19.52;8.30;;;;;;;23.79;45.47;100565.88;4937669;28;20042;-61
2023/07/02 02:03:20;;;;;;;18.52;8.35;;;;;;;23.78;45.11;100559.56;4953512;28;20480;-61
2023/07/02 02:05:45;;;;;;;20.33;8.07;;;;;;;23.79;45.39;100560.41;4937506;28;20049;-61
2023/07/02 02:08:11;;;;;;;21.10;8.45;;;;;;;23.80;45.14;100561.25;4922153;28;20086;-61
2023/07/02 02:10:36;;;;;;;17.42;7.45;;;;;;;23.85;45.16;100569.63;4954890;28;20031;-61
2023/07/02 02:13:01;;;;;;;25.50;8.70;;;;;;;23.84;45.69;100571.56;4952314;28;20499;-61
2023/07/02 02:15:27;;;;;;;25.08;8.57;;;;;;;23.84;45.71;100560.63;4937403;28;20027;-61
2023/07/02 02:17:52;;;;;;;22.02;8.05;;;;;;;23.87;45.17;100567.53;4953443;28;20102;-62
2023/07/02 02:20:18;;;;;;;16.75;7.38;;;;;;;23.88;45.56;100575.50;4953246;28;20039;-61
2023/07/02 02:22:43;;;;;;;23.00;8.85;;;;;;;23.87;45.13;100571.09;4937663;28;20027;-60
2023/07/02 02:25:09;;;;;;;24.98;8.40;;;;;;;23.87;45.63;100578.47;4953367;28;20118;-61
2023/07/02 02:27:34;;;;;;;30.73;8.63;;;;;;;23.86;45.43;100576.78;4953476;28;20090;-61
2023/07/02 02:30:00;;;;;;;20.88;8.68;;;;;;;23.88;45.05;100578.25;4937400;28;20058;-61
2023/07/02 02:32:25;;;;;;;23.30;8.38;;;;;;;23.87;45.74;100573.00;4954748;28;20035;-61
2023/07/02 02:34:50;;;;;;;20.30;8.85;;;;;;;23.91;45.42;100582.44;4955244;28;20039;-61
2023/07/02 02:37:17;;;;;;;30.58;9.07;;;;;;;23.93;45.96;100577.56;4954142;28;20074;-61
2023/07/02 02:39:42;;;;;;;18.67;8.60;;;;;;;23.96;45.60;100585.34;4953873;28;20114;-61
2023/07/02 02:42:08;;;;;;;20.55;8.70;;;;;;;23.97;45.97;100585.13;4921909;28;20122;-61
2023/07/02 02:44:34;;;;;;;20.95;9.10;;;;;;;23.97;45.23;100582.38;4955194;28;20556;-62
2023/07/02 02:46:59;;;;;;;24.77;9.20;;;;;;;23.96;45.13;100577.97;4953828;28;20054;-61
2023/07/02 02:49:25;;;;;;;20.70;10.20;;;;;;;23.97;45.09;100581.56;4953759;28;20126;-61
2023/07/02 02:51:50;;;;;;;24.20;9.07;;;;;;;23.90;45.02;100569.81;4953463;28;20031;-61
2023/07/02 02:54:16;;;;;;;26.05;9.20;;;;;;;23.94;45.86;100592.94;4953554;28;20055;-61
2023/07/02 02:56:42;;;;;;;18.38;8.77;;;;;;;23.95;45.35;100583.69;4939931;28;20521;-61
2023/07/02 02:59:07;;;;;;;24.83;8.40;;;;;;;23.89;45.58;100574.47;4941315;28;20038;-61
2023/07/02 03:01:32;;;;;;;29.85;10.15;;;;;;;23.92;45.33;100586.84;4957072;28;20054;-61
2023/07/02 03:03:58;;;;;;;22.33;10.15;;;;;;;23.92;45.50;100584.13;4956569;28;20051;-61
2023/07/02 03:06:24;;;;;;;20.98;9.15;;;;;;;23.95;45.09;100589.16;4924853;28;20027;-61
2023/07/02 03:08:49;;;;;;;26.38;11.25;;;;;;;23.95;45.01;100589.16;4941032;28;20043;-61
2023/07/02 03:11:15;;;;;;;30.63;11.13;;;;;;;23.97;46.11;100589.75;4940391;28;20039;-62
2023/07/02 03:13:40;;;;;;;28.98;10.73;;;;;;;23.97;45.07;100595.22;4940233;28;20031;-61
2023/07/02 03:16:06;;;;;;;22.90;10.57;;;;;;;23.96;45.00;100599.03;4972321;28;20035;-61
2023/07/02 03:18:31;;;;;;;23.25;10.45;;;;;;;23.95;45.13;100589.16;4956876;28;20411;-60
2023/07/02 03:20:57;;;;;;;24.02;10.23;;;;;;;23.95;45.46;100597.38;4940929;28;20039;-61
2023/07/02 03:23:23;;;;;;;25.63;10.93;;;;;;;23.94;45.41;100596.53;4972984;28;20114;-61
2023/07/02 03:25:48;;;;;;;28.00;9.27;;;;;;;23.90;45.40;100598.00;4957062;28;20031;-61
2023/07/02 03:28:14;;;;;;;25.65;9.30;;;;;;;23.89;45.68;100600.97;4956772;28;20035;-61
2023/07/02 03:30:39;;;;;;;25.55;10.07;;;;;;;23.86;45.12;100594.06;4973340;28;20047;-61
2023/07/02 03:33:04;;;;;;;25.60;10.55;;;;;;;23.86;45.30;100606.88;4957433;29;20039;-61
2023/07/02 03:35:30;;;;;;;27.42;11.23;;;;;;;23.85;45.10;100608.78;4960214;28;20039;-62
2023/07/02 03:37:57;;;;;;;25.17;9.95;;;;;;;23.84;45.06;100611.75;4960382;28;20043;-61
2023/07/02 03:40:23;;;;;;;29.90;10.18;;;;;;;23.82;45.54;100605.63;4943813;29;20482;-62
2023/07/02 03:42:48;;;;;;;25.02;10.65;;;;;;;23.85;45.10;100618.88;4959630;28;20495;-61
2023/07/02 03:45:13;;;;;;;28.25;9.82;;;;;;;23.86;46.19;100628.78;4961769;28;20480;-61
2023/07/02 03:47:39;;;;;;;29.83;10.80;;;;;;;23.84;45.65;100620.81;4962063;29;20098;-61
2023/07/02 03:50:04;;;;;;;24.65;10.30;;;;;;;23.84;46.11;100622.69;4945150;29;20035;-61
2023/07/02 03:52:30;;;;;;;25.27;10.35;;;;;;;23.85;45.24;100621.63;4942478;29;20034;-61
2023/07/02 03:54:55;;;;;;;33.78;10.60;;;;;;;23.86;46.19;100628.78;4959590;29;20106;-62
2023/07/02 03:57:21;;;;;;;28.48;11.90;;;;;;;23.85;46.07;100630.66;4956078;29;20038;-63
2023/07/02 03:59:46;;;;;;;23.50;10.45;;;;;;;23.81;45.26;100628.59;4955145;29;20035;-63
2023/07/02 04:02:11;;;;;;;27.88;10.13;;;;;;;23.80;46.11;100629.66;4939301;29;20038;-63
2023/07/02 04:04:37;;;;;;;28.15;10.82;;;;;;;23.79;45.33;100637.03;4955378;28;20476;-61
2023/07/02 04:07:02;;;;;;;29.92;9.75;;;;;;;23.79;45.90;100637.03;4939336;28;20024;-61
2023/07/02 04:09:28;;;;;;;25.98;10.65;;;;;;;23.79;45.32;100639.75;4935753;29;20090;-61
2023/07/02 04:11:53;;;;;;;27.58;10.38;;;;;;;23.76;46.01;100646.50;4932150;29;20036;-61
2023/07/02 04:14:18;;;;;;;30.17;11.30;;;;;;;23.75;45.82;100647.59;4962701;28;20043;-62
2023/07/02 04:16:44;;;;;;;29.73;10.38;;;;;;;23.77;46.10;100642.72;4951567;28;20039;-61
2023/07/02 04:19:10;;;;;;;28.65;11.38;;;;;;;23.81;46.35;100642.28;4945775;29;20039;-61
2023/07/02 04:21:35;;;;;;;24.52;10.82;;;;;;;23.81;45.91;100653.22;4963426;29;20038;-61
2023/07/02 04:24:01;;;;;;;24.40;10.77;;;;;;;23.81;46.43;100654.06;4923202;29;20036;-61
2023/07/02 04:26:27;;;;;;;31.05;11.55;;;;;;;23.81;45.74;100648.59;4936003;29;20440;-61
2023/07/02 04:28:54;;;;;;;30.40;10.50;;;;;;;23.86;46.33;100659.72;4940229;29;20059;-61
2023/07/02 04:31:20;;;;;;;22.23;10.73;;;;;;;23.88;45.52;100659.50;4938923;29;20407;-61
2023/07/02 04:33:45;;;;;;;28.98;11.43;;;;;;;23.87;46.39;100663.31;4923283;29;20054;-61
2023/07/02 04:36:12;;;;;;;29.77;12.80;;;;;;;23.88;46.64;100667.69;4954929;29;20110;-61
2023/07/02 04:38:39;;;;;;;30.85;11.27;;;;;;;23.91;45.94;100661.78;4954590;29;20503;-62
2023/07/02 04:41:05;;;;;;;31.05;11.55;;;;;;;23.94;45.68;100666.81;4938755;29;20042;-61
2023/07/02 04:43:31;;;;;;;24.75;10.73;;;;;;;23.95;45.59;100668.50;4955940;28;20035;-61
2023/07/02 04:45:57;;;;;;;32.25;12.50;;;;;;;23.96;45.95;100678.38;4954598;29;20042;-61
2023/07/02 04:48:22;;;;;;;36.72;11.60;;;;;;;23.98;45.61;100674.34;4956098;28;20032;-61
2023/07/02 04:50:48;;;;;;;29.17;11.02;;;;;;;24.05;45.62;100674.31;4938649;29;20118;-62
2023/07/02 04:53:13;;;;;;;27.77;12.35;;;;;;;24.08;46.08;100673.88;4938343;29;20488;-61
2023/07/02 04:55:38;;;;;;;28.27;12.75;;;;;;;24.15;45.55;100685.66;4938188;29;20075;-63
2023/07/02 04:58:04;;;;;;;28.58;13.10;;;;;;;24.14;45.78;100681.25;4938463;29;20529;-60
2023/07/02 05:00:29;;;;;;;28.20;12.05;;;;;;;24.17;45.82;100680.81;4938247;29;20479;-61
2023/07/02 05:02:55;;;;;;;35.45;11.93;;;;;;;24.23;45.97;100694.44;4955483;28;20046;-62
2023/07/02 05:05:20;;;;;;;30.85;11.30;;;;;;;24.26;45.92;100682.22;4935113;29;20065;-61
2023/07/02 05:07:45;;;;;;;28.73;11.98;;;;;;;24.33;45.73;100685.75;4941864;29;20066;-61
2023/07/02 05:10:11;;;;;;;35.67;13.07;;;;;;;24.39;45.29;100690.34;4953894;29;20027;-61
2023/07/02 05:12:36;;;;;;;35.47;12.82;;;;;;;24.44;46.11;100695.13;4969981;28;20035;-61
2023/07/02 05:15:02;;;;;;;31.88;12.18;;;;;;;24.46;45.85;100688.38;4953746;28;20035;-61
2023/07/02 05:17:27;;;;;;;28.42;13.50;;;;;;;24.52;45.53;100695.69;4954188;29;20058;-61
2023/07/02 05:19:52;;;;;;;29.05;11.18;;;;;;;24.53;45.74;100697.38;4934200;29;20032;-61
2023/07/02 05:22:19;;;;;;;33.70;12.02;;;;;;;24.55;45.64;100706.22;4941973;29;20035;-60
2023/07/02 05:24:44;;;;;;;34.08;12.30;;;;;;;24.60;46.03;100709.13;4937671;29;20070;-61
2023/07/02 05:27:10;;;;;;;35.90;12.50;;;;;;;24.66;45.49;100702.75;4954007;29;20101;-61
2023/07/02 05:29:35;;;;;;;33.30;12.30;;;;;;;24.70;45.32;100704.00;4937817;29;20075;-61
2023/07/02 05:32:00;;;;;;;24.70;11.48;;;;;;;24.75;45.14;100700.56;4938006;29;20170;-61
2023/07/02 05:34:26;;;;;;;26.13;11.88;;;;;;;24.81;45.55;100703.28;4921758;29;20075;-60
2023/07/02 05:36:51;;;;;;;32.58;12.60;;;;;;;24.84;45.67;100705.56;4954958;28;20038;-60
2023/07/02 05:39:16;;;;;;;36.30;12.90;;;;;;;24.92;45.39;100706.34;4953656;28;20035;-61
2023/07/02 05:41:42;;;;;;;29.65;12.52;;;;;;;24.94;45.68;100698.72;4937936;29;20395;-61
2023/07/02 05:44:07;;;;;;;32.72;12.65;;;;;;;25.03;44.95;100709.19;4954585;28;20043;-60
2023/07/02 05:46:32;;;;;;;33.47;14.10;;;;;;;25.07;45.44;100710.38;4937413;29;20094;-60
2023/07/02 05:48:59;;;;;;;31.10;12.95;;;;;;;25.17;44.49;100723.59;4953531;29;20103;-61
2023/07/02 05:51:25;;;;;;;27.83;11.88;;;;;;;25.22;45.38;100715.50;4954773;28;20059;-61
2023/07/02 05:53:51;;;;;;;36.60;12.13;;;;;;;25.18;45.46;100717.06;4953499;29;20043;-61
2023/07/02 05:56:17;;;;;;;34.33;12.57;;;;;;;25.17;44.78;100726.31;4954606;28;20503;-61
2023/07/02 05:58:42;;;;;;;35.10;12.48;;;;;;;25.21;45.86;100733.84;4953319;29;20039;-61
2023/07/02 06:01:08;;;;;;;28.75;12.60;;;;;;;25.25;45.27;100732.34;4937307;29;20035;-61
2023/07/02 06:03:33;;;;;;;35.35;13.80;;;;;;;25.28;45.08;100737.38;4937457;29;20042;-61
2023/07/02 06:05:58;;;;;;;35.33;12.38;;;;;;;25.33;45.13;100736.69;4953667;29;20039;-61
2023/07/02 06:08:24;;;;;;;28.92;12.32;;;;;;;25.39;44.92;100733.03;4955523;28;20031;-61
2023/07/02 06:10:49;;;;;;;31.00;12.65;;;;;;;25.42;45.23;100733.44;4953319;28;20108;-61
2023/07/02 06:13:15;;;;;;;34.10;12.73;;;;;;;25.46;44.73;100739.31;4937314;29;20047;-61
2023/07/02 06:15:40;;;;;;;32.92;12.57;;;;;;;25.51;45.03;100750.47;4952977;29;20554;-62
2023/07/02 06:18:06;;;;;;;35.38;12.93;;;;;;;25.60;44.65;100749.06;4969218;28;20035;-61
2023/07/02 06:20:31;;;;;;;31.77;11.55;;;;;;;25.68;44.46;100748.78;4937366;29;20023;-61
2023/07/02 06:22:57;;;;;;;38.90;13.27;;;;;;;25.73;44.57;100743.44;4954570;28;20035;-61
2023/07/02 06:25:22;;;;;;;34.42;13.30;;;;;;;25.78;44.39;100745.47;4954716;28;20055;-61
2023/07/02 06:27:47;;;;;;;28.02;12.88;;;;;;;25.86;44.27;100747.91;4953188;29;20053;-61
2023/07/02 06:30:13;;;;;;;39.05;13.35;;;;;;;25.85;44.53;100757.22;4952835;28;20039;-60
2023/07/02 06:32:38;;;;;;;32.30;13.30;;;;;;;25.98;44.38;100766.13;4958147;28;20039;-61
2023/07/02 06:35:06;;;;;;;33.45;13.52;;;;;;;26.16;44.37;100764.47;4957227;29;20396;-61
2023/07/02 06:37:31;;;;;;;33.92;13.35;;;;;;;26.24;44.12;100761.38;4957907;28;20027;-61
2023/07/02 06:39:57;;;;;;;32.50;12.20;;;;;;;26.34;43.66;100767.13;4940615;29;20031;-61
2023/07/02 06:42:22;;;;;;;34.00;12.68;;;;;;;26.45;43.86;100780.91;4957897;28;20047;-61
2023/07/02 06:44:48;;;;;;;32.70;11.75;;;;;;;26.56;43.59;100776.53;4957715;28;20051;-61
2023/07/02 06:47:13;;;;;;;29.42;12.27;;;;;;;26.58;43.40;100768.88;4972694;28;20410;-61
2023/07/02 06:49:38;;;;;;;34.38;14.25;;;;;;;26.74;43.28;100776.47;4956705;29;20041;-61
2023/07/02 06:52:04;;;;;;;33.92;12.32;;;;;;;26.93;42.81;100767.06;4957577;28;20039;-62
2023/07/02 06:54:29;;;;;;;30.50;12.05;;;;;;;27.03;43.10;100771.97;4956602;29;20042;-62
2023/07/02 06:56:55;;;;;;;33.17;12.35;;;;;;;27.26;42.02;100773.88;4957546;28;20118;-62
2023/07/02 06:59:24;;;;;;;31.80;12.60;;;;;;;27.25;42.27;100775.78;4940401;29;20061;-63
2023/07/02 07:01:50;;;;;;;38.13;12.80;;;;;;;27.42;42.38;100775.94;4937674;29;20059;-63
2023/07/02 07:04:15;;;;;;;37.72;12.25;;;;;;;27.54;41.96;100780.34;4940227;29;20034;-63
2023/07/02 07:06:41;;;;;;;30.65;11.63;;;;;;;27.53;42.16;100783.34;4956402;28;20031;-62
2023/07/02 07:09:06;;;;;;;38.40;13.23;;;;;;;27.58;41.46;100780.72;4957556;28;20047;-61
2023/07/02 07:11:32;;;;;;;28.45;12.43;;;;;;;27.62;41.84;100787.41;4956506;29;20043;-62
2023/07/02 07:13:57;;;;;;;31.70;11.43;;;;;;;27.60;41.46;100787.66;4956226;29;20032;-61
2023/07/02 07:16:22;;;;;;;27.25;11.57;;;;;;;27.61;41.20;100785.75;4957292;28;20388;-62
2023/07/02 07:18:48;;;;;;;30.50;12.05;;;;;;;27.65;41.45;100792.44;4956027;29;20039;-61
2023/07/02 07:21:13;;;;;;;27.13;11.25;;;;;;;27.75;40.95;100800.91;4957313;28;20051;-61
2023/07/02 07:23:40;;;;;;;32.40;11.68;;;;;;;28.25;40.39;100795.66;4957056;28;20087;-62
2023/07/02 07:26:05;;;;;;;37.53;13.30;;;;;;;28.38;41.11;100792.59;4956092;29;20411;-61
2023/07/02 07:28:31;;;;;;;31.65;11.48;;;;;;;28.65;40.22;100801.09;4955893;29;20094;-60
2023/07/02 07:30:56;;;;;;;27.30;12.48;;;;;;;28.92;39.91;100795.78;4939492;29;20055;-62
2023/07/02 07:33:21;;;;;;;28.55;12.63;;;;;;;29.34;38.90;100792.34;4955792;28;20035;-60
2023/07/02 07:35:47;;;;;;;26.92;10.13;;;;;;;29.38;38.91;100804.56;4955878;28;20555;-61
2023/07/02 07:38:16;;;;;;;26.33;11.23;;;;;;;29.18;39.73;100795.94;4939524;29;20114;-61
2023/07/02 07:40:42;;;;;;;25.75;11.38;;;;;;;29.31;38.57;100792.84;4955690;29;20062;-61
2023/07/02 07:43:07;;;;;;;31.85;11.40;;;;;;;29.50;38.23;100806.41;4954555;28;20047;-61
2023/07/02 07:45:33;;;;;;;28.48;11.73;;;;;;;29.59;38.66;100800.19;4955607;29;20046;-61
2023/07/02 07:47:59;;;;;;;33.63;11.63;;;;;;;29.60;38.48;100806.53;4956655;28;20050;-61
2023/07/02 07:50:24;;;;;;;22.63;10.93;;;;;;;29.94;37.65;100805.38;4956807;28;20035;-61
2023/07/02 07:52:51;;;;;;;28.70;11.35;;;;;;;30.29;37.11;100804.97;4939350;29;20047;-60
2023/07/02 07:55:16;;;;;;;28.33;11.93;;;;;;;30.68;37.13;100808.47;4955482;29;20058;-63
2023/07/02 07:57:42;;;;;;;30.23;11.93;;;;;;;30.98;36.91;100804.06;4955501;29;20043;-61
2023/07/02 08:00:11;;;;;;;24.17;11.38;;;;;;;31.28;36.36;100800.69;4955548;29;20043;-61
2023/07/02 08:02:37;;;;;;;27.00;11.75;;;;;;;31.56;36.79;100799.50;4956551;28;20043;-61
2023/07/02 08:05:03;;;;;;;27.73;12.07;;;;;;;31.81;36.57;100796.88;4939011;29;20045;-61
2023/07/02 08:07:28;;;;;;;27.85;12.18;;;;;;;31.87;36.47;100798.56;4939410;29;20050;-61
2023/07/02 08:09:53;;;;;;;26.85;11.10;;;;;;;31.77;35.92;100794.91;4955111;29;20503;-61
2023/07/02 08:12:19;;;;;;;26.35;11.13;;;;;;;31.73;36.07;100811.25;4955299;29;20059;-62
2023/07/02 08:14:44;;;;;;;31.95;11.40;;;;;;;31.91;35.05;100802.44;4955087;28;20023;-61
2023/07/02 08:17:10;;;;;;;27.92;10.70;;;;;;;32.21;34.73;100802.63;4955019;29;20420;-62
2023/07/02 08:19:35;;;;;;;23.92;12.07;;;;;;;31.88;36.04;100807.72;4956432;28;20031;-61
2023/07/02 08:22:00;;;;;;;24.02;12.13;;;;;;;31.64;35.88;100813.69;4955040;29;20130;-61
2023/07/02 08:24:26;;;;;;;30.38;11.90;;;;;;;31.40;35.77;100819.88;4938859;29;20574;-61
2023/07/02 08:26:51;;;;;;;29.70;11.82;;;;;;;31.06;36.21;100822.94;4954912;28;20037;-61
2023/07/02 08:29:16;;;;;;;25.55;9.98;;;;;;;30.80;35.78;100822.94;4956461;28;20090;-61
2023/07/02 08:31:43;;;;;;;23.15;9.68;;;;;;;30.45;36.03;100827.03;4956079;28;20130;-62
2023/07/02 08:34:08;;;;;;;26.42;9.60;;;;;;;30.17;35.99;100824.47;4954814;29;20035;-61
2023/07/02 08:36:33;;;;;;;22.75;10.25;;;;;;;29.93;36.23;100831.31;4954696;29;20415;-60
2023/07/02 08:38:59;;;;;;;26.85;11.25;;;;;;;29.73;36.09;100831.84;4955905;28;20406;-61
2023/07/02 08:41:24;;;;;;;26.52;10.90;;;;;;;29.55;36.53;100834.06;4954584;28;20042;-61
2023/07/02 08:43:51;;;;;;;27.30;10.30;;;;;;;29.36;36.09;100828.84;4954569;29;20125;-61
2023/07/02 08:46:17;;;;;;;32.30;11.30;;;;;;;29.19;36.73;100833.50;4954812;28;20047;-61
2023/07/02 08:48:42;;;;;;;26.73;10.18;;;;;;;29.05;36.46;100837.69;4938787;29;20435;-61
2023/07/02 08:51:08;;;;;;;35.72;11.60;;;;;;;28.89;37.01;100833.00;4955772;28;20094;-60
2023/07/02 08:53:33;;;;;;;30.45;11.07;;;;;;;28.79;36.59;100830.03;4954318;28;20027;-60
2023/07/02 08:56:00;;;;;;;28.50;12.35;;;;;;;29.45;35.95;100830.06;4954312;29;20039;-61
2023/07/02 08:58:26;;;;;;;26.27;10.82;;;;;;;29.88;36.35;100836.78;4955727;28;20503;-61
2023/07/02 09:01:08;;;;;;;25.00;10.93;;;;;;;30.58;35.42;100837.69;4954250;29;20038;-61
2023/07/02 09:03:34;;;;;;;27.33;11.18;;;;;;;31.07;35.03;100845.94;4955595;28;20039;-61
2023/07/02 09:05:59;;;;;;;28.98;11.32;;;;;;;31.63;34.20;100838.91;4955572;28;20046;-61
2023/07/02 09:08:27;;;;;;;26.80;11.57;;;;;;;31.49;34.67;100837.69;4954293;29;20078;-61
2023/07/02 09:11:08;;;;;;;27.55;10.52;;;;;;;31.29;35.25;100843.06;4955104;28;20031;-62
2023/07/02 09:13:43;;;;;;;25.95;10.80;;;;;;;31.15;35.02;100853.75;4955654;28;20086;-62
2023/07/02 09:16:23;;;;;;;27.60;11.82;;;;;;;31.10;35.02;100850.94;4954433;28;20023;-61
2023/07/02 09:19:02;;;;;;;26.08;10.60;;;;;;;30.95;35.19;100853.56;4955148;28;20042;-61
2023/07/02 09:21:48;;;;;;;23.15;10.50;;;;;;;30.74;35.11;100851.69;4938304;29;20027;-61
2023/07/02 09:24:18;;;;;;;34.17;10.02;;;;;;;30.83;35.14;100845.41;4969827;28;20050;-61
2023/07/02 09:26:45;;;;;;;25.65;10.88;;;;;;;31.15;34.69;100848.22;4954163;28;20039;-61
2023/07/02 09:29:12;;;;;;;24.25;10.98;;;;;;;31.13;34.44;100845.69;4937922;29;20042;-62
2023/07/02 09:31:47;;;;;;;24.65;10.32;;;;;;;31.14;34.63;100841.00;4953556;29;20035;-61
2023/07/02 09:34:12;;;;;;;22.02;9.02;;;;;;;30.88;34.92;100836.28;4950942;29;20039;-61
2023/07/02 09:36:40;;;;;;;27.48;10.93;;;;;;;30.91;34.65;100836.59;4953746;29;20041;-61
2023/07/02 09:39:19;;;;;;;23.60;10.10;;;;;;;31.40;34.02;100834.56;4938154;29;20098;-61
2023/07/02 09:41:45;;;;;;;26.58;10.18;;;;;;;31.19;34.53;100838.25;4955321;28;20036;-62
2023/07/02 09:44:12;;;;;;;23.80;10.77;;;;;;;30.88;34.73;100841.81;4953700;28;20057;-61
2023/07/02 09:46:43;;;;;;;32.50;11.63;;;;;;;30.60;35.12;100844.88;4953706;29;20078;-62
2023/07/02 09:49:13;;;;;;;21.25;7.78;;;;;;;30.35;35.11;100849.00;4953619;29;20042;-61
2023/07/02 09:51:38;;;;;;;15.00;6.65;;;;;;;30.09;34.25;100855.31;4953963;29;20129;-61
2023/07/02 09:54:03;;;;;;;14.43;6.75;;;;;;;29.83;34.20;100853.31;4938007;29;20055;-61
2023/07/02 09:56:29;;;;;;;13.52;6.30;;;;;;;29.64;33.96;100854.66;4954057;29;20075;-61
2023/07/02 09:58:54;;;;;;;14.13;6.20;;;;;;;29.59;33.21;100860.94;4953862;29;20039;-61
2023/07/02 10:01:20;;;;;;;17.88;6.53;;;;;;;29.81;33.19;100848.03;4939024;29;20032;-61
2023/07/02 10:03:45;;;;;;;20.38;6.70;;;;;;;30.69;32.40;100857.97;4953416;29;20042;-62
2023/07/02 10:06:11;;;;;;;20.98;18.83;;;;;;;31.19;32.13;100857.63;4955084;28;20035;-61
2023/07/02 10:08:36;;;;;;;58.60;54.53;;;;;;;32.11;31.40;100846.94;4941650;29;20042;-61
2023/07/02 10:11:13;;;;;;;85.40;80.32;;;;;;;33.60;28.58;100840.25;4957231;29;20106;-61
2023/07/02 10:13:39;;;;;;;13.07;5.60;;;;;;;35.32;27.74;100847.72;4957609;28;20042;-62
2023/07/02 10:16:05;;;;;;;15.48;5.78;;;;;;;37.00;26.19;100839.81;4959177;28;20027;-61
2023/07/02 10:18:31;;;;;;;15.30;6.93;;;;;;;37.87;25.07;100837.97;4958205;29;20074;-61
2023/07/02 10:20:56;;;;;;;10.77;4.95;;;;;;;36.67;26.27;100833.34;4974201;28;20110;-61
2023/07/02 10:23:33;;;;;;;14.55;6.15;;;;;;;35.59;26.22;100839.69;4972998;28;20038;-61
2023/07/02 10:26:09;;;;;;;16.80;5.93;;;;;;;34.80;26.85;100856.75;4956838;28;20043;-61
2023/07/02 10:28:35;;;;;;;12.40;5.50;;;;;;;34.13;27.05;100851.81;4957293;28;20042;-61
2023/07/02 10:31:00;;;;;;;17.73;5.18;;;;;;;33.55;27.95;100850.53;4957226;28;20059;-61
2023/07/02 10:33:25;;;;;;;17.63;5.60;;;;;;;33.00;27.45;100851.38;4959036;28;20062;-61
2023/07/02 10:35:51;;;;;;;14.68;5.20;;;;;;;32.67;27.59;100847.97;4957773;28;20046;-61
2023/07/02 10:38:23;;;;;;;12.73;5.63;;;;;;;32.63;28.25;100855.19;4958000;28;20024;-62
2023/07/02 10:40:56;;;;;;;14.75;4.65;;;;;;;32.85;28.11;100857.72;4956946;28;20505;-61
2023/07/02 10:43:28;;;;;;;11.93;4.82;;;;;;;32.68;27.58;100857.13;4940655;29;20050;-61
2023/07/02 10:45:54;;;;;;;18.63;5.20;;;;;;;32.53;28.42;100849.56;4958359;28;20035;-61
2023/07/02 10:48:20;;;;;;;12.48;5.85;;;;;;;32.31;27.92;100860.03;4963338;29;20042;-61
2023/07/02 10:50:46;;;;;;;15.52;6.03;;;;;;;32.19;28.16;100854.72;4963601;28;20043;-61
2023/07/02 10:53:18;;;;;;;11.00;5.28;;;;;;;33.17;27.84;100860.25;4962642;29;20039;-62
2023/07/02 10:55:44;;;;;;;10.95;5.53;;;;;;;34.04;26.30;100847.91;4947978;29;20035;-61
2023/07/02 10:58:11;;;;;;;13.45;5.82;;;;;;;35.01;25.91;100853.50;4963752;29;20123;-62
2023/07/02 11:00:49;;;;;;;14.02;6.30;;;;;;;35.84;25.67;100842.19;4948508;29;20496;-62
2023/07/02 11:03:25;;;;;;;10.13;5.45;;;;;;;36.65;25.16;100839.22;4959402;29;20042;-62
2023/07/02 11:05:51;;;;;;;12.75;5.85;;;;;;;37.05;24.79;100843.34;4941292;29;20047;-63
2023/07/02 11:08:17;;;;;;;15.13;4.95;;;;;;;37.11;25.05;100839.34;4957023;29;20046;-61
2023/07/02 11:10:43;;;;;;;11.05;4.85;;;;;;;36.43;25.54;100832.56;4957023;29;20039;-61